createdAt,value
2017-08-20T00:01:55.647Z,5.60
2017-08-20T00:04:24.115Z,5.77
2017-08-20T00:06:52.568Z,4.50
2017-08-20T00:09:20.864Z,5.17
2017-08-20T00:11:49.132Z,4.97
2017-08-20T00:14:17.430Z,5.67
2017-08-20T00:16:45.684Z,5.20
2017-08-20T00:19:14.159Z,5.57
2017-08-20T00:21:42.632Z,4.73
2017-08-20T00:24:11.264Z,4.83
2017-08-20T00:26:39.984Z,5.20
2017-08-20T00:29:08.476Z,3.70
2017-08-20T00:31:36.840Z,3.50
2017-08-20T00:34:05.432Z,3.87
2017-08-20T00:36:33.740Z,2.90
2017-08-20T00:39:02.093Z,3.50
2017-08-20T00:41:30.611Z,3.00
2017-08-20T00:43:58.872Z,2.80
2017-08-20T00:46:27.188Z,2.60
2017-08-20T00:48:55.591Z,2.70
2017-08-20T00:51:23.888Z,2.33
2017-08-20T00:53:52.146Z,2.20
2017-08-20T00:56:20.516Z,1.83
2017-08-20T00:58:48.825Z,1.73
2017-08-20T01:01:17.134Z,1.77
2017-08-20T01:03:45.722Z,1.70
2017-08-20T01:06:14.576Z,1.67
2017-08-20T01:08:43.082Z,2.20
2017-08-20T01:11:11.604Z,2.57
2017-08-20T01:13:39.892Z,1.73
2017-08-20T01:16:08.136Z,2.00
2017-08-20T01:18:36.658Z,1.80
2017-08-20T01:21:04.953Z,2.20
2017-08-20T01:23:33.664Z,1.60
2017-08-20T01:26:02.277Z,2.10
2017-08-20T01:28:30.565Z,2.23
2017-08-20T01:30:59.699Z,2.00
2017-08-20T01:33:28.340Z,1.60
2017-08-20T01:35:56.930Z,2.13
2017-08-20T01:38:25.571Z,1.97
2017-08-20T01:40:53.871Z,2.17
2017-08-20T01:43:22.143Z,1.90
2017-08-20T01:45:50.575Z,1.73
2017-08-20T01:48:19.165Z,2.13
2017-08-20T01:50:47.632Z,2.03
2017-08-20T01:53:16.190Z,1.70
2017-08-20T01:55:44.465Z,1.63
2017-08-20T01:58:12.781Z,1.67
2017-08-20T02:00:46.032Z,2.60
2017-08-20T02:03:14.292Z,2.50
2017-08-20T02:05:42.550Z,1.63
2017-08-20T02:08:11.682Z,2.33
2017-08-20T02:10:40.376Z,2.23
2017-08-20T02:13:08.703Z,1.67
2017-08-20T02:15:37.031Z,1.63
2017-08-20T02:18:05.329Z,2.10
2017-08-20T02:20:33.846Z,2.70
2017-08-20T02:23:02.138Z,1.77
2017-08-20T02:25:30.655Z,2.80
2017-08-20T02:27:59.115Z,2.63
2017-08-20T02:30:27.476Z,2.70
2017-08-20T02:32:56.218Z,3.40
2017-08-20T02:35:24.549Z,3.17
2017-08-20T02:37:52.907Z,2.80
2017-08-20T02:40:21.432Z,3.17
2017-08-20T02:42:49.911Z,2.87
2017-08-20T02:45:18.183Z,2.90
2017-08-20T02:47:46.436Z,2.47
2017-08-20T02:50:15.089Z,4.40
2017-08-20T02:52:43.547Z,2.63
2017-08-20T02:55:11.896Z,2.13
2017-08-20T02:57:40.152Z,3.00
2017-08-20T03:00:08.508Z,3.30
2017-08-20T03:02:36.799Z,3.27
2017-08-20T03:05:05.085Z,4.17
2017-08-20T03:07:33.838Z,2.60
2017-08-20T03:10:02.301Z,2.90
2017-08-20T03:12:30.753Z,2.97
2017-08-20T03:14:59.100Z,2.50
2017-08-20T03:17:27.503Z,3.77
2017-08-20T03:19:55.771Z,2.77
2017-08-20T03:22:24.119Z,3.70
2017-08-20T03:24:52.364Z,3.00
2017-08-20T03:27:20.650Z,2.70
2017-08-20T03:29:48.929Z,2.50
2017-08-20T03:32:17.244Z,2.63
2017-08-20T03:34:45.925Z,3.23
2017-08-20T03:37:14.551Z,3.50
2017-08-20T03:39:42.972Z,2.83
2017-08-20T03:42:11.539Z,2.90
2017-08-20T03:44:39.808Z,3.60
2017-08-20T03:47:08.344Z,4.33
2017-08-20T03:49:36.744Z,3.00
2017-08-20T03:52:05.091Z,3.70
2017-08-20T03:54:34.051Z,3.20
2017-08-20T03:57:02.293Z,3.37
2017-08-20T03:59:31.291Z,3.83
2017-08-20T04:02:00.352Z,3.80
2017-08-20T04:04:28.623Z,3.87
2017-08-20T04:06:56.886Z,3.60
2017-08-20T04:09:25.176Z,3.60
2017-08-20T04:11:53.432Z,3.60
2017-08-20T04:14:21.680Z,2.27
2017-08-20T04:16:50.024Z,3.27
2017-08-20T04:19:18.276Z,3.27
2017-08-20T04:21:46.660Z,3.70
2017-08-20T04:24:15.020Z,2.73
2017-08-20T04:26:43.268Z,2.93
2017-08-20T04:29:11.600Z,3.40
2017-08-20T04:31:39.892Z,3.93
2017-08-20T04:34:08.235Z,2.90
2017-08-20T04:36:42.408Z,3.20
2017-08-20T04:39:16.528Z,3.57
2017-08-20T04:41:50.698Z,2.93
2017-08-20T04:44:24.854Z,3.27
2017-08-20T04:46:59.064Z,2.37
2017-08-20T04:49:33.211Z,3.23
2017-08-20T04:52:07.530Z,3.20
2017-08-20T04:54:41.653Z,2.60
2017-08-20T04:57:15.939Z,2.67
2017-08-20T04:59:50.178Z,3.03
2017-08-20T05:02:24.536Z,3.00
2017-08-20T05:04:58.699Z,3.23
2017-08-20T05:07:33.044Z,2.90
2017-08-20T05:10:07.135Z,3.20
2017-08-20T05:12:41.423Z,2.37
2017-08-20T05:15:15.645Z,2.83
2017-08-20T05:17:50.036Z,3.53
2017-08-20T05:23:04.868Z,3.30
2017-08-20T05:25:33.385Z,3.30
2017-08-20T05:28:01.923Z,3.60
2017-08-20T05:30:30.212Z,2.50
2017-08-20T05:32:58.452Z,4.00
2017-08-20T05:35:26.784Z,2.60
2017-08-20T05:37:55.040Z,2.60
2017-08-20T05:40:23.383Z,2.87
2017-08-20T05:42:51.703Z,2.43
2017-08-20T05:45:19.960Z,2.53
2017-08-20T05:47:48.316Z,2.50
2017-08-20T05:50:16.895Z,2.60
2017-08-20T05:52:45.560Z,2.53
2017-08-20T05:55:13.812Z,2.20
2017-08-20T05:57:42.100Z,2.73
2017-08-20T06:00:10.501Z,3.07
2017-08-20T06:02:38.836Z,2.30
2017-08-20T06:05:07.137Z,2.43
2017-08-20T06:07:35.384Z,2.90
2017-08-20T06:10:04.367Z,2.67
2017-08-20T06:12:32.924Z,3.57
2017-08-20T06:15:01.376Z,2.37
2017-08-20T06:17:29.745Z,2.30
2017-08-20T06:19:58.006Z,2.50
2017-08-20T06:22:26.257Z,2.20
2017-08-20T06:24:54.548Z,2.50
2017-08-20T06:27:22.956Z,2.37
2017-08-20T06:29:51.233Z,3.27
2017-08-20T06:32:19.602Z,2.40
2017-08-20T06:34:48.583Z,2.03
2017-08-20T06:37:17.031Z,1.97
2017-08-20T06:39:45.359Z,2.07
2017-08-20T06:42:13.690Z,2.13
2017-08-20T06:44:42.331Z,2.93
2017-08-20T06:47:10.628Z,1.87
2017-08-20T06:49:39.016Z,3.00
2017-08-20T06:52:07.385Z,2.10
2017-08-20T06:54:35.765Z,1.77
2017-08-20T06:57:04.087Z,1.77
2017-08-20T06:59:32.356Z,1.90
2017-08-20T07:02:00.783Z,1.47
2017-08-20T07:04:29.211Z,2.20
2017-08-20T07:06:57.477Z,2.00
2017-08-20T07:09:26.046Z,1.53
2017-08-20T07:11:54.572Z,1.53
2017-08-20T07:14:22.849Z,2.20
2017-08-20T07:16:51.473Z,2.03
2017-08-20T07:19:19.794Z,1.73
2017-08-20T07:21:48.283Z,2.07
2017-08-20T07:24:16.529Z,2.03
2017-08-20T07:26:45.012Z,2.77
2017-08-20T07:29:13.269Z,2.13
2017-08-20T07:31:41.962Z,1.73
2017-08-20T07:34:10.233Z,2.13
2017-08-20T07:36:38.545Z,1.73
2017-08-20T07:39:07.065Z,1.50
2017-08-20T07:41:35.328Z,2.03
2017-08-20T07:44:03.788Z,2.70
2017-08-20T07:46:32.059Z,2.10
2017-08-20T07:49:00.304Z,2.33
2017-08-20T07:51:28.705Z,2.03
2017-08-20T07:53:57.060Z,3.03
2017-08-20T07:56:25.288Z,1.87
2017-08-20T07:58:53.620Z,1.87
2017-08-20T08:01:21.868Z,1.73
2017-08-20T08:03:50.173Z,1.97
2017-08-20T08:06:18.431Z,2.60
2017-08-20T08:08:46.758Z,2.37
2017-08-20T08:11:15.072Z,1.90
2017-08-20T08:13:43.329Z,2.53
2017-08-20T08:16:11.580Z,2.03
2017-08-20T08:18:39.971Z,2.13
2017-08-20T08:21:08.283Z,2.63
2017-08-20T08:23:36.536Z,1.63
2017-08-20T08:26:04.875Z,1.97
2017-08-20T08:28:33.152Z,1.90
2017-08-20T08:31:01.681Z,1.93
2017-08-20T08:33:30.281Z,1.97
2017-08-20T08:35:58.540Z,2.10
2017-08-20T08:38:27.019Z,1.80
2017-08-20T08:40:55.454Z,3.00
2017-08-20T08:43:23.768Z,2.70
2017-08-20T08:45:52.395Z,1.50
2017-08-20T08:48:20.724Z,2.90
2017-08-20T08:50:48.970Z,3.30
2017-08-20T08:53:17.317Z,2.87
2017-08-20T08:55:45.832Z,2.67
2017-08-20T08:58:14.486Z,2.40
2017-08-20T09:00:42.724Z,2.00
2017-08-20T09:03:11.460Z,1.53
2017-08-20T09:05:40.676Z,1.40
2017-08-20T09:08:08.951Z,1.60
2017-08-20T09:10:37.350Z,1.30
2017-08-20T09:13:05.633Z,1.60
2017-08-20T09:15:34.229Z,1.60
2017-08-20T09:18:02.599Z,1.50
2017-08-20T09:20:31.739Z,2.30
2017-08-20T09:23:00.186Z,1.57
2017-08-20T09:25:28.613Z,1.30
2017-08-20T09:27:56.856Z,2.00
2017-08-20T09:30:25.247Z,1.30
2017-08-20T09:32:53.766Z,2.00
2017-08-20T09:35:22.472Z,1.80
2017-08-20T09:37:51.002Z,1.60
2017-08-20T09:40:19.412Z,1.40
2017-08-20T09:42:47.724Z,1.27
2017-08-20T09:45:16.047Z,1.90
2017-08-20T09:47:44.319Z,1.50
2017-08-20T09:50:12.623Z,1.50
2017-08-20T09:52:40.894Z,1.30
2017-08-20T09:55:09.220Z,1.27
2017-08-20T09:57:37.629Z,1.27
2017-08-20T10:00:05.915Z,1.70
2017-08-20T10:02:34.224Z,1.43
2017-08-20T10:05:03.063Z,1.57
2017-08-20T10:07:31.552Z,1.40
2017-08-20T10:10:00.358Z,1.63
2017-08-20T10:12:28.671Z,1.43
2017-08-20T10:14:57.068Z,1.70
2017-08-20T10:17:25.529Z,1.87
2017-08-20T10:19:53.784Z,2.07
2017-08-20T10:22:22.199Z,1.33
2017-08-20T10:24:50.969Z,1.40
2017-08-20T10:27:19.212Z,1.47
2017-08-20T10:29:47.451Z,1.50
2017-08-20T10:32:15.944Z,1.37
2017-08-20T10:34:44.185Z,1.50
2017-08-20T10:37:12.768Z,2.33
2017-08-20T10:39:41.099Z,1.50
2017-08-20T10:42:09.452Z,1.60
2017-08-20T10:44:37.719Z,1.10
2017-08-20T10:47:06.157Z,1.30
2017-08-20T10:49:34.486Z,1.33
2017-08-20T10:52:02.779Z,2.23
2017-08-20T10:54:31.686Z,1.23
2017-08-20T10:57:00.099Z,1.40
2017-08-20T10:59:28.624Z,1.13
2017-08-20T11:01:57.042Z,1.20
2017-08-20T11:04:25.475Z,1.20
2017-08-20T11:06:54.553Z,1.93
2017-08-20T11:09:23.521Z,1.20
2017-08-20T11:11:51.740Z,1.03
2017-08-20T11:14:20.025Z,1.03
2017-08-20T11:16:48.275Z,1.33
2017-08-20T11:19:16.541Z,1.03
2017-08-20T11:21:44.803Z,1.70
2017-08-20T11:24:13.200Z,1.73
2017-08-20T11:26:41.556Z,1.70
2017-08-20T11:29:09.936Z,1.77
2017-08-20T11:31:38.480Z,2.70
2017-08-20T11:34:06.911Z,1.70
2017-08-20T11:36:35.430Z,1.57
2017-08-20T11:39:03.715Z,1.10
2017-08-20T11:41:32.085Z,2.03
2017-08-20T11:44:00.820Z,1.67
2017-08-20T11:46:29.177Z,1.77
2017-08-20T11:48:57.484Z,1.20
2017-08-20T11:51:25.916Z,1.40
2017-08-20T11:53:54.172Z,0.93
2017-08-20T11:56:22.477Z,1.10
2017-08-20T11:58:50.779Z,0.80
2017-08-20T12:01:19.063Z,1.00
2017-08-20T12:03:47.311Z,1.20
2017-08-20T12:06:15.723Z,1.30
2017-08-20T12:08:44.481Z,1.03
2017-08-20T12:11:13.043Z,1.57
2017-08-20T12:13:41.452Z,1.00
2017-08-20T12:16:10.016Z,1.80
2017-08-20T12:18:38.559Z,1.40
2017-08-20T12:21:06.955Z,1.30
2017-08-20T12:23:35.672Z,1.70
2017-08-20T12:26:03.953Z,1.30
2017-08-20T12:28:32.275Z,1.30
2017-08-20T12:31:00.735Z,1.20
2017-08-20T12:33:30.044Z,1.20
2017-08-20T12:35:58.445Z,1.10
2017-08-20T12:38:26.718Z,1.13
2017-08-20T12:40:55.843Z,1.27
2017-08-20T12:43:24.151Z,1.00
2017-08-20T12:45:52.498Z,1.20
2017-08-20T12:48:20.939Z,0.90
2017-08-20T12:50:49.244Z,1.53
2017-08-20T12:55:55.383Z,1.27
2017-08-20T12:58:24.121Z,1.40
2017-08-20T13:00:52.539Z,1.00
2017-08-20T13:03:20.916Z,1.10
2017-08-20T13:05:49.485Z,1.60
2017-08-20T13:08:17.792Z,1.77
2017-08-20T13:10:46.210Z,1.27
2017-08-20T13:13:14.659Z,1.43
2017-08-20T13:15:43.265Z,0.93
2017-08-20T13:18:11.528Z,1.83
2017-08-20T13:20:39.910Z,1.43
2017-08-20T13:23:08.195Z,1.50
2017-08-20T13:25:36.560Z,1.20
2017-08-20T13:28:04.836Z,1.30
2017-08-20T13:30:33.419Z,1.20
2017-08-20T13:33:01.864Z,2.27
2017-08-20T13:35:30.305Z,1.30
2017-08-20T13:37:58.660Z,1.53
2017-08-20T13:40:27.112Z,1.73
2017-08-20T13:42:55.431Z,1.23
2017-08-20T13:45:23.742Z,1.20
2017-08-20T13:47:52.232Z,1.47
2017-08-20T13:50:20.709Z,1.23
2017-08-20T13:52:48.971Z,1.70
2017-08-20T13:55:17.448Z,1.50
2017-08-20T13:57:45.852Z,1.63
2017-08-20T14:00:14.274Z,1.77
2017-08-20T14:02:42.519Z,2.20
2017-08-20T14:05:10.812Z,1.20
2017-08-20T14:07:39.172Z,1.30
2017-08-20T14:10:07.653Z,1.20
2017-08-20T14:12:36.110Z,2.00
2017-08-20T14:15:04.710Z,3.03
2017-08-20T14:17:33.281Z,1.70
2017-08-20T14:20:01.624Z,1.30
2017-08-20T14:22:31.152Z,1.90
2017-08-20T14:24:59.703Z,4.27
2017-08-20T14:27:27.984Z,3.00
2017-08-20T14:29:56.256Z,6.17
2017-08-20T14:32:24.495Z,3.53
2017-08-20T14:34:52.974Z,4.10
2017-08-20T14:37:21.377Z,4.47
2017-08-20T14:39:49.622Z,1.50
2017-08-20T14:42:17.869Z,1.10
2017-08-20T14:44:46.115Z,2.20
2017-08-20T14:47:14.466Z,2.10
2017-08-20T14:49:42.739Z,2.47
2017-08-20T14:52:11.012Z,1.83
2017-08-20T14:54:39.424Z,2.00
2017-08-20T14:57:07.728Z,2.37
2017-08-20T14:59:36.229Z,2.10
2017-08-20T15:02:04.464Z,1.30
2017-08-20T15:04:32.852Z,2.30
2017-08-20T15:07:01.218Z,1.50
2017-08-20T15:09:29.544Z,2.07
2017-08-20T15:11:57.872Z,2.47
2017-08-20T15:14:26.919Z,1.50
2017-08-20T15:16:55.371Z,3.70
2017-08-20T15:19:23.655Z,1.90
2017-08-20T15:21:52.228Z,2.90
2017-08-20T15:24:20.609Z,2.00
2017-08-20T15:26:49.293Z,1.40
2017-08-20T15:29:17.685Z,1.67
2017-08-20T15:31:45.945Z,1.70
2017-08-20T15:34:14.199Z,3.23
2017-08-20T15:36:42.723Z,2.30
2017-08-20T15:39:11.099Z,1.93
2017-08-20T15:41:39.341Z,2.13
2017-08-20T15:44:07.831Z,1.60
2017-08-20T15:46:36.148Z,2.37
2017-08-20T15:49:04.456Z,1.80
2017-08-20T15:51:32.771Z,1.70
2017-08-20T15:54:01.045Z,2.27
2017-08-20T15:56:29.328Z,3.37
2017-08-20T15:58:57.637Z,2.77
2017-08-20T16:01:26.069Z,1.07
2017-08-20T16:03:54.459Z,1.57
2017-08-20T16:06:22.781Z,1.90
2017-08-20T16:08:51.244Z,1.73
2017-08-20T16:11:19.655Z,1.63
2017-08-20T16:13:48.219Z,1.73
2017-08-20T16:16:16.947Z,1.67
2017-08-20T16:18:47.473Z,2.17
2017-08-20T16:21:15.852Z,1.80
2017-08-20T16:23:44.683Z,1.73
2017-08-20T16:26:13.000Z,1.53
2017-08-20T16:28:41.247Z,1.33
2017-08-20T16:31:09.501Z,1.60
2017-08-20T16:33:37.927Z,2.13
2017-08-20T16:36:06.294Z,1.63
2017-08-20T16:38:34.622Z,2.20
2017-08-20T16:41:02.918Z,2.47
2017-08-20T16:43:33.326Z,2.37
2017-08-20T16:46:01.679Z,2.23
2017-08-20T16:48:30.067Z,1.80
2017-08-20T16:50:58.375Z,1.90
2017-08-20T16:53:26.791Z,1.97
2017-08-20T16:55:55.169Z,1.97
2017-08-20T16:58:23.604Z,2.33
2017-08-20T17:00:51.955Z,1.80
2017-08-20T17:03:20.537Z,2.20
2017-08-20T17:05:48.923Z,2.13
2017-08-20T17:08:17.358Z,2.43
2017-08-20T17:10:45.853Z,2.67
2017-08-20T17:13:14.252Z,3.23
2017-08-20T17:15:42.572Z,2.53
2017-08-20T17:18:14.805Z,2.53
2017-08-20T17:20:43.306Z,2.33
2017-08-20T17:23:12.232Z,3.20
2017-08-20T17:25:40.518Z,2.47
2017-08-20T17:28:10.840Z,2.83
2017-08-20T17:30:40.161Z,2.37
2017-08-20T17:33:08.472Z,2.30
2017-08-20T17:35:36.829Z,1.87
2017-08-20T17:38:05.168Z,2.73
2017-08-20T17:40:33.507Z,2.10
2017-08-20T17:43:01.887Z,2.40
2017-08-20T17:45:30.346Z,3.73
2017-08-20T17:47:58.785Z,1.97
2017-08-20T17:50:27.052Z,1.97
2017-08-20T17:52:55.582Z,2.33
2017-08-20T17:55:24.444Z,4.60
2017-08-20T17:57:52.801Z,2.30
2017-08-20T18:00:21.273Z,2.70
2017-08-20T18:02:49.576Z,5.03
2017-08-20T18:05:17.949Z,2.63
2017-08-20T18:07:46.293Z,1.13
2017-08-20T18:10:14.903Z,2.07
2017-08-20T18:12:44.165Z,2.53
2017-08-20T18:15:12.855Z,2.83
2017-08-20T18:17:41.621Z,3.10
2017-08-20T18:20:09.948Z,2.73
2017-08-20T18:22:38.293Z,2.33
2017-08-20T18:25:06.595Z,2.47
2017-08-20T18:27:35.445Z,3.57
2017-08-20T18:30:03.974Z,2.57
2017-08-20T18:32:32.276Z,1.90
2017-08-20T18:35:00.576Z,2.40
2017-08-20T18:37:28.932Z,2.73
2017-08-20T18:39:58.110Z,2.10
2017-08-20T18:42:26.400Z,2.23
2017-08-20T18:44:54.741Z,2.67
2017-08-20T18:47:23.020Z,3.70
2017-08-20T18:49:51.280Z,2.07
2017-08-20T18:52:19.525Z,2.17
2017-08-20T18:54:48.215Z,3.03
2017-08-20T18:57:16.492Z,7.47
2017-08-20T18:59:44.804Z,3.00
2017-08-20T19:02:13.179Z,2.47
2017-08-20T19:04:41.457Z,2.17
2017-08-20T19:07:09.805Z,2.23
2017-08-20T19:09:38.073Z,2.80
2017-08-20T19:12:06.346Z,2.00
2017-08-20T19:14:34.695Z,3.40
2017-08-20T19:17:02.994Z,2.47
2017-08-20T19:19:31.404Z,2.60
2017-08-20T19:21:59.772Z,2.10
2017-08-20T19:24:28.152Z,3.00
2017-08-20T19:26:56.504Z,2.30
2017-08-20T19:29:24.764Z,2.60
2017-08-20T19:31:53.126Z,2.40
2017-08-20T19:34:21.653Z,3.00
2017-08-20T19:36:49.969Z,3.00
2017-08-20T19:39:18.656Z,2.80
2017-08-20T19:41:50.405Z,3.00
2017-08-20T19:44:19.027Z,2.47
2017-08-20T19:54:26.184Z,3.00
2017-08-20T19:56:57.665Z,2.77
2017-08-20T20:01:59.994Z,2.27
2017-08-20T20:04:28.355Z,2.63
2017-08-20T20:06:56.622Z,2.50
2017-08-20T20:09:24.996Z,2.33
2017-08-20T20:11:53.602Z,2.07
2017-08-20T20:14:21.884Z,2.53
2017-08-20T20:16:50.181Z,2.60
2017-08-20T20:19:18.464Z,2.13
2017-08-20T20:21:46.728Z,2.30
2017-08-20T20:24:15.013Z,2.30
2017-08-20T20:26:44.693Z,2.40
2017-08-20T20:29:25.053Z,2.47
2017-08-20T20:32:42.569Z,1.73
2017-08-20T20:35:12.887Z,2.73
2017-08-20T20:37:43.711Z,1.60
2017-08-20T20:40:13.378Z,2.57
2017-08-20T21:08:39.737Z,2.43
2017-08-20T21:11:06.709Z,2.20
2017-08-20T21:16:42.607Z,3.00
2017-08-20T21:19:11.736Z,2.40
2017-08-20T21:21:40.929Z,4.73
2017-08-20T21:24:10.031Z,2.77
2017-08-20T21:26:39.047Z,3.03
2017-08-20T21:29:08.154Z,2.93
2017-08-20T21:31:37.385Z,2.53
2017-08-20T21:34:06.753Z,3.10
2017-08-20T21:36:35.922Z,3.30
2017-08-20T21:39:05.021Z,3.10
2017-08-20T21:41:34.103Z,2.43
2017-08-20T21:44:03.251Z,2.87
2017-08-20T21:46:32.455Z,2.97
2017-08-20T21:49:01.468Z,2.00
2017-08-20T21:51:30.574Z,2.67
2017-08-20T21:53:59.579Z,3.10
2017-08-20T21:56:28.609Z,5.07
2017-08-20T21:58:57.756Z,3.20
2017-08-20T22:01:26.822Z,4.23
2017-08-20T22:03:55.849Z,3.70
2017-08-20T22:06:24.853Z,2.87
2017-08-20T22:08:53.927Z,2.70
2017-08-20T22:11:23.573Z,3.43
2017-08-20T22:13:52.677Z,3.37
2017-08-20T22:16:21.754Z,3.47
2017-08-20T22:18:50.741Z,3.37
2017-08-20T22:21:19.788Z,3.90
2017-08-20T22:23:48.858Z,3.50
2017-08-20T22:26:18.054Z,5.00
2017-08-20T22:28:47.161Z,4.20
2017-08-20T22:31:16.193Z,3.60
2017-08-20T22:33:45.702Z,2.53
2017-08-20T22:36:14.762Z,2.93
2017-08-20T22:38:43.768Z,2.67
2017-08-20T22:41:12.827Z,3.60
2017-08-20T22:43:42.079Z,3.60
2017-08-20T22:46:11.145Z,2.67
2017-08-20T22:48:40.161Z,3.00
2017-08-20T22:51:09.181Z,2.67
2017-08-20T22:53:38.972Z,3.57
2017-08-20T22:56:07.975Z,2.73
2017-08-20T22:58:37.210Z,3.20
2017-08-20T23:01:06.509Z,3.47
2017-08-20T23:03:35.606Z,3.40
2017-08-20T23:06:04.679Z,3.57
2017-08-20T23:08:33.825Z,3.00
2017-08-20T23:11:02.902Z,3.60
2017-08-20T23:13:32.735Z,2.60
2017-08-20T23:16:01.751Z,3.37
2017-08-20T23:18:30.783Z,3.33
2017-08-20T23:20:59.779Z,3.20
2017-08-20T23:23:28.915Z,2.80
2017-08-20T23:25:58.017Z,3.37
2017-08-20T23:28:27.181Z,4.67
2017-08-20T23:30:56.313Z,3.37
2017-08-20T23:33:25.352Z,2.93
2017-08-20T23:35:54.491Z,3.17
2017-08-20T23:38:23.498Z,3.13
2017-08-20T23:40:52.573Z,3.17
2017-08-20T23:43:21.741Z,2.60
2017-08-20T23:45:50.814Z,2.80
2017-08-20T23:48:19.976Z,2.57
2017-08-20T23:50:49.067Z,3.27
2017-08-20T23:53:18.121Z,3.30
2017-08-20T23:55:47.116Z,3.57
2017-08-20T23:58:16.209Z,3.23
